aviador You're here:

RJOO Decoded Metar

OSAKA in JAPAN
Report Time2015-04-28 10:00:00
UTC Time2015-04-28 10:14:26
Flight Rules vfr VFR
Wind250° at 07 kt
W.Decomp.*RWY 32: 3.2 kt HW 6.2 kt LCW
W.Rank250° ranks 15
Current wind is above 250° avg. (6.8)
Visibility9999 m
Phenomena:N/A
Clouds:Few 030 Hf
Scattered 045 Hf
Broken 060 Hf
Expected CloudBase > 4,000 ft AGL from Temp-Dew spread
Ceiling6,000 ft
Temp21°C (ISA +6)
Dew Point11°C (53% RH)
AAT18.8°C
QNH1016 hPa
Density Alt837 ft
Elevation49 ft
Report Wrong Elevation
Raw Report
RJOO 281000Z 25007KT 210V280 9999 FEW030 SCT045 BKN060 21/11 Q1016
RMK 1CU030 3CU045 5SC060 A3001=

Extra information for RJOO:More info

Metar Taf Metar & Taf Last 4 Metars F.Rules Stats Wind Profile Meteogram Temp Stats Airport Information Weather charts Add Link Nearby VenuesMetar ALERT Operation Metar Decoded Social comments